Latest Weather Observations for St Lawrence

IDQ60801

Issued at 12:05 pm EST Saturday 30 August 2014 (issued every 30 minutes, with the page automatically refreshed every 10 minutes)

About weather observations | Map of weather stations | Latest weather observations for QLD | Other Formats
Station Details ID: 033210 Name: ST LAWRENCE Lat: -22.35 Lon: 149.52 Height: 9.19 m
Data from the previous 72 hours. | See also: Recent months at St Lawrence
Date/Time
EST
Temp
°C
App
Temp
°C
Dew
Point
Rel
Hum
%
Delta-T
°C
Wind Press
QNH
hPa
Press
MSL
hPa
Rain
since 9 am
mm
Dir
 
Spd
km/h
Gust
km/h
Spd
kts
Gust
kts
30/12:00pm 23.8 21.2 7.8 36 8.4 SSE 11 22 6 12 1019.0 1019.0 0.0
30/11:30am 23.4 20.8 7.9 37 8.1 SSE 11 17 6 9 1019.9 1019.9 0.0
30/11:00am 22.7 21.6 10.5 46 6.7 W 7 13 4 7 1020.5 1020.5 0.0
30/10:30am 22.8 23.1 12.1 51 6.1 SW 2 9 1 5 1021.2 1021.2 0.0
30/10:00am 21.8 21.4 12.9 57 5.1 W 7 11 4 6 1021.7 1021.7 0.0
30/09:30am 20.5 19.2 12.5 60 4.5 SSW 11 15 6 8 1021.6 1021.6 0.0
30/09:00am 19.0 17.0 12.7 67 3.5 S 15 20 8 11 1021.4 1021.4 0.0
30/08:30am 17.7 16.4 13.8 78 2.2 S 13 20 7 11 1021.2 1021.2 0.0
30/08:00am 14.9 13.9 12.4 85 1.4 S 9 15 5 8 1021.1 1021.1 0.0
30/07:30am 12.8 11.4 10.9 88 1.0 SSW 9 13 5 7 1021.3 1021.3 0.0
30/07:00am 12.8 10.7 11.2 90 0.8 S 13 17 7 9 1021.0 1021.0 0.0
30/06:30am 11.9 9.8 11.0 94 0.5 S 13 17 7 9 1020.5 1020.5 0.0
30/06:00am 11.8 10.3 10.5 92 0.7 S 9 13 5 7 1020.3 1020.3 0.0
30/05:30am 12.2 10.5 11.3 94 0.5 SSE 11 15 6 8 1019.8 1019.8 0.0
30/05:00am 11.8 9.3 11.2 96 0.3 S 15 20 8 11 1019.5 1019.5 0.0
30/04:30am 10.5 9.3 9.7 95 0.4 S 6 9 3 5 1019.2 1019.2 0.0
30/04:00am 10.4 9.0 9.0 91 0.7 SSW 6 9 3 5 1019.2 1019.2 0.0
30/03:30am 11.2 10.1 9.9 92 0.7 SW 6 7 3 4 1019.1 1019.1 0.0
30/03:00am 12.0 11.2 10.9 93 0.6 SW 6 7 3 4 1019.5 1019.5 0.0
30/02:30am 11.6 10.6 10.3 92 0.7 SW 6 7 3 4 1019.6 1019.6 0.0
30/02:00am 11.6 11.3 10.2 91 0.7 WSW 2 6 1 3 1019.6 1019.6 0.0
30/01:30am 12.1 11.6 10.8 92 0.7 SW 4 7 2 4 1019.7 1019.7 0.0
30/01:00am 11.9 12.1 10.5 91 0.7 CALM 0 6 0 3 1019.7 1019.7 0.0
30/12:30am 12.5 12.9 11.1 91 0.7 CALM 0 0 0 0 1019.8 1019.8 0.0
30/12:00am 12.5 12.7 10.4 87 1.1 W 0 4 0 2 1019.9 1019.9 0.0
 
Date/Time
EST
Temp
°C
App
Temp
°C
Dew
Point
Rel
Hum
%
Delta-T
°C
Wind Press
QNH
hPa
Press
MSL
hPa
Rain
since 9 am
mm
Dir
 
Spd
km/h
Gust
km/h
Spd
kts
Gust
kts
29/11:30pm 13.2 12.9 11.6 90 0.9 SW 4 6 2 3 1019.8 1019.8 0.0
29/11:00pm 13.3 13.9 11.9 91 0.7 CALM 0 0 0 0 1019.8 1019.8 0.0
29/10:30pm 13.0 13.4 11.2 89 0.9 WSW 0 0 0 0 1019.8 1019.8 0.0
29/10:00pm 13.6 14.0 11.1 85 1.3 WSW 0 0 0 0 1019.8 1019.8 0.0
29/09:30pm 14.8 15.7 12.8 88 1.1 CALM 0 0 0 0 1020.0 1020.0 0.0
29/09:00pm 15.3 15.9 13.0 86 1.3 WSW 2 6 1 3 1020.0 1020.0 0.0
29/08:30pm 15.9 16.5 13.0 83 1.6 W 2 6 1 3 1020.1 1020.1 0.0
29/08:00pm 16.6 17.6 13.1 80 1.9 CALM 0 0 0 0 1019.9 1019.9 0.0
29/07:30pm 18.0 18.3 13.5 75 2.5 NE 4 7 2 4 1019.6 1019.6 0.0
29/07:00pm 19.0 18.4 13.6 71 3.1 N 9 13 5 7 1019.3 1019.3 0.0
29/06:30pm 19.6 18.6 13.5 68 3.5 N 11 15 6 8 1019.2 1019.2 0.0
29/06:00pm 20.4 18.8 13.8 66 3.8 N 15 20 8 11 1018.8 1018.8 0.0
29/05:30pm 21.0 18.5 13.4 62 4.4 NNE 19 24 10 13 1018.2 1018.2 0.0
29/05:00pm 21.6 19.4 13.2 59 4.8 NNE 17 24 9 13 1017.9 1017.9 0.0
29/04:30pm 22.2 19.5 13.0 56 5.3 NE 19 26 10 14 1017.6 1017.6 0.0
29/04:00pm 23.3 21.3 12.6 51 6.1 NE 15 22 8 12 1017.7 1017.7 0.0
29/03:30pm 23.7 20.6 11.7 47 6.8 NE 19 24 10 13 1017.7 1017.7 0.0
29/03:00pm 24.2 21.1 11.5 45 7.1 NNE 19 24 10 13 1017.9 1017.9 0.0
29/02:30pm 24.7 22.2 9.8 39 8.2 NE 13 17 7 9 1018.0 1018.0 0.0
29/02:00pm 24.3 21.7 9.5 39 8.0 NNE 13 19 7 10 1018.4 1018.4 0.0
29/01:30pm 23.8 20.9 9.8 41 7.6 N 15 24 8 13 1018.9 1018.9 0.0
29/01:00pm 23.7 21.2 9.7 41 7.6 NNE 13 20 7 11 1019.6 1019.6 0.0
29/12:30pm 23.7 21.4 10.4 43 7.3 NNE 13 19 7 10 1020.1 1020.1 0.0
29/12:00pm 22.8 20.4 9.9 44 7.0 N 13 20 7 11 1020.7 1020.7 0.0
29/11:30am 22.7 20.3 10.2 45 6.8 N 13 19 7 10 1021.3 1021.3 0.0
29/11:00am 23.3 21.6 9.7 42 7.4 E 9 19 5 10 1021.6 1021.6 0.0
29/10:30am 22.6 21.2 9.4 43 7.1 ESE 7 15 4 8 1022.0 1022.0 0.0
29/10:00am 21.8 20.5 10.0 47 6.4 SSE 7 15 4 8 1022.3 1022.3 0.0
29/09:30am 20.6 19.0 10.1 51 5.7 SE 9 17 5 9 1022.4 1022.4 0.0
29/09:00am 20.3 18.8 11.8 58 4.7 SSE 11 19 6 10 1022.2 1022.2 0.0
29/08:30am 19.0 17.6 12.3 65 3.7 S 11 19 6 10 1022.3 1022.3 0.0
29/08:00am 17.2 16.3 12.5 74 2.6 S 9 15 5 8 1022.0 1022.0 0.0
29/07:30am 14.5 13.3 11.6 83 1.6 S 9 13 5 7 1021.8 1021.8 0.0
29/07:00am 12.2 10.8 10.8 91 0.7 S 9 13 5 7 1021.3 1021.3 0.0
29/06:30am 10.9 9.6 9.8 93 0.6 S 7 11 4 6 1021.0 1021.0 0.0
29/06:00am 10.2 9.9 8.6 90 0.8 CALM 0 0 0 0 1020.7 1020.7 0.0
29/05:30am 10.7 10.2 9.3 91 0.7 SSW 2 7 1 4 1020.2 1020.2 0.0
29/05:00am 10.7 10.1 8.8 88 0.9 SW 2 6 1 3 1019.9 1019.9 0.0
29/04:30am 11.2 9.7 9.3 88 1.0 SW 7 9 4 5 1019.6 1019.6 0.0
29/04:00am 11.0 9.8 9.4 90 0.8 SW 6 7 3 4 1019.7 1019.7 0.0
29/03:30am 10.7 10.5 9.0 89 0.8 CALM 0 4 0 2 1019.6 1019.6 0.0
29/03:00am 11.5 10.4 9.8 89 0.9 SW 6 7 3 4 1019.7 1019.7 0.0
29/02:30am 11.8 10.7 9.9 88 1.0 SW 6 7 3 4 1019.6 1019.6 0.0
29/02:00am 11.2 10.7 9.3 88 0.9 SW 2 7 1 4 1019.7 1019.7 0.0
29/01:30am 12.1 11.4 10.0 87 1.1 SW 4 6 2 3 1019.7 1019.7 0.0
29/01:00am 12.4 11.5 10.8 90 0.8 SW 6 7 3 4 1019.8 1019.8 0.0
29/12:30am 11.7 10.9 9.6 87 1.1 SW 4 7 2 4 1019.9 1019.9 0.0
29/12:00am 13.0 13.4 11.2 89 0.9 CALM 0 0 0 0 1019.8 1019.8 0.0
 
Date/Time
EST
Temp
°C
App
Temp
°C
Dew
Point
Rel
Hum
%
Delta-T
°C
Wind Press
QNH
hPa
Press
MSL
hPa
Rain
since 9 am
mm
Dir
 
Spd
km/h
Gust
km/h
Spd
kts
Gust
kts
28/11:30pm 12.5 12.6 10.2 86 1.2 CALM 0 0 0 0 1019.8 1019.8 0.0
28/11:00pm 13.0 13.2 10.4 84 1.3 CALM 0 0 0 0 1019.6 1019.6 0.0
28/10:30pm 13.8 14.2 11.3 85 1.3 CALM 0 0 0 0 1019.6 1019.6 0.0
28/10:00pm 14.3 14.3 11.3 82 1.6 SSE 2 6 1 3 1019.7 1019.7 0.0
28/09:30pm 14.8 15.4 11.8 82 1.6 CALM 0 0 0 0 1019.7 1019.7 0.0
28/09:00pm 15.9 16.5 11.9 77 2.2 CALM 0 0 0 0 1019.6 1019.6 0.0
28/08:30pm 16.9 16.2 12.0 73 2.7 NE 7 9 4 5 1019.5 1019.5 0.0
28/08:00pm 18.2 17.8 12.9 71 3.0 NE 7 11 4 6 1019.3 1019.3 0.0
28/07:30pm 18.4 17.4 12.4 68 3.3 ENE 9 13 5 7 1018.8 1018.8 0.0
28/07:00pm 19.0 18.1 12.7 67 3.5 ENE 9 11 5 6 1018.3 1018.3 0.0
28/06:30pm 19.9 18.7 12.9 64 4.0 ENE 11 15 6 8 1017.8 1017.8 0.0
28/06:00pm 22.6 20.6 7.2 37 8.0 S 7 9 4 5 1017.2 1017.2 0.0
28/05:30pm 24.6 21.8 6.8 32 9.3 S 11 17 6 9 1016.8 1016.8 0.0
28/05:00pm 25.4 22.1 6.6 30 9.8 S 13 19 7 10 1016.5 1016.5 0.0
28/04:30pm 25.9 22.4 7.0 30 9.9 S 15 26 8 14 1016.0 1016.0 0.0
28/04:00pm 26.3 22.7 6.9 29 10.2 SSW 15 26 8 14 1015.7 1015.7 0.0
28/03:30pm 26.0 21.6 6.6 29 10.1 S 19 30 10 16 1015.7 1015.7 0.0
28/03:00pm 26.0 22.0 6.6 29 10.1 S 17 28 9 15 1015.8 1015.8 0.0
28/02:30pm 25.5 20.8 6.2 29 10.0 S 20 28 11 15 1015.9 1015.9 0.0
28/02:00pm 25.2 21.1 6.4 30 9.7 S 17 22 9 12 1016.1 1016.1 0.0
28/01:30pm 25.6 22.5 7.2 31 9.7 S 13 30 7 16 1016.3 1016.3 0.0
28/01:00pm 24.8 21.3 7.4 33 9.1 S 15 26 8 14 1016.8 1016.8 0.0
28/12:30pm 24.1 20.1 6.8 33 9.0 SW 17 26 9 14 1017.1 1017.1 0.0
28/12:00pm 23.4 19.4 6.7 34 8.6 SSW 17 28 9 15 1017.7 1017.7 0.0
28/11:30am 22.9 18.5 6.6 35 8.4 S 19 30 10 16 1018.4 1018.4 0.0
28/11:00am 22.6 19.1 7.2 37 7.9 SSW 15 24 8 13 1018.7 1018.7 0.0
28/10:30am 22.0 17.6 6.7 37 7.8 S 19 33 10 18 1019.0 1019.0 0.0
28/10:00am 21.2 17.1 6.3 38 7.5 S 17 30 9 16 1019.5 1019.5 0.0
28/09:30am 20.5 16.1 6.4 40 7.1 S 19 32 10 17 1019.7 1019.7 0.0
28/09:00am 19.2 15.6 6.7 44 6.2 S 15 24 8 13 1019.9 1019.9 0.0
28/08:30am 18.0 15.6 7.1 49 5.5 S 9 13 5 7 1019.8 1019.8 0.0
28/08:00am 16.0 15.4 7.5 57 4.2 CALM 0 0 0 0 1019.5 1019.5 0.0
28/07:30am 13.3 12.7 7.5 68 2.8 CALM 0 6 0 3 1019.4 1019.4 0.0
28/07:00am 10.7 8.7 6.3 74 2.0 SSW 6 9 3 5 1019.3 1019.3 0.0
28/06:30am 8.4 6.8 4.4 76 1.8 W 2 9 1 5 1018.9 1018.9 0.0
28/06:00am 8.6 7.3 4.2 74 1.9 CALM 0 0 0 0 1018.6 1018.6 0.0
28/05:30am 8.8 7.6 4.4 74 1.9 CALM 0 0 0 0 1018.2 1018.2 0.0
28/05:00am 9.5 8.1 3.7 67 2.5 CALM 0 2 0 1 1018.1 1018.1 0.0
28/04:30am 12.7 9.6 3.6 54 4.1 SSW 9 11 5 6 1017.9 1017.9 0.0
28/04:00am 11.9 9.1 3.4 56 3.7 S 7 11 4 6 1017.9 1017.9 0.0
28/03:30am 12.1 9.2 2.8 53 4.1 S 7 11 4 6 1018.0 1018.0 0.0
28/03:00am 12.5 9.2 2.7 51 4.3 S 9 13 5 7 1018.1 1018.1 0.0
28/02:30am 12.1 8.9 3.1 54 4.0 S 9 13 5 7 1018.0 1018.0 0.0
28/02:00am 12.8 9.6 2.9 51 4.4 S 9 13 5 7 1018.0 1018.0 0.0
28/01:30am 13.1 9.8 2.6 49 4.6 S 9 15 5 8 1018.1 1018.1 0.0
28/01:00am 10.6 7.8 3.2 60 3.2 S 7 9 4 5 1018.2 1018.2 0.0
28/12:30am 11.4 8.5 2.7 55 3.8 SW 7 9 4 5 1018.0 1018.0 0.0
28/12:00am 11.1 8.7 4.1 62 3.1 SW 6 7 3 4 1018.0 1018.0 0.0
 
Date/Time
EST
Temp
°C
App
Temp
°C
Dew
Point
Rel
Hum
%
Delta-T
°C
Wind Press
QNH
hPa
Press
MSL
hPa
Rain
since 9 am
mm
Dir
 
Spd
km/h
Gust
km/h
Spd
kts
Gust
kts
27/11:30pm 10.6 8.7 2.7 58 3.4 SSW 2 6 1 3 1017.9 1017.9 0.0
27/11:00pm 11.8 9.1 2.8 54 3.9 SW 6 7 3 4 1017.9 1017.9 0.0
27/10:30pm 13.8 11.0 1.8 44 5.2 SW 6 7 3 4 1017.7 1017.7 0.0
27/10:00pm 14.3 11.4 2.5 45 5.2 SW 7 9 4 5 1017.5 1017.5 0.0
27/09:30pm 14.5 12.5 2.4 44 5.4 WSW 2 6 1 3 1017.3 1017.3 0.0
27/09:00pm 15.0 12.7 2.5 43 5.6 WSW 4 7 2 4 1017.1 1017.1 0.0
27/08:30pm 15.4 12.6 1.9 40 6.0 WSW 6 9 3 5 1016.9 1016.9 0.0
27/08:00pm 15.6 12.8 3.4 44 5.6 WSW 7 9 4 5 1016.6 1016.6 0.0
27/07:30pm 16.0 13.3 2.4 40 6.1 S 6 9 3 5 1016.2 1016.2 0.0
27/07:00pm 18.9 15.7 0.5 29 8.1 S 7 9 4 5 1015.6 1015.6 0.0
27/06:30pm 19.8 16.5 0.3 27 8.6 SSW 7 9 4 5 1015.2 1015.2 0.0
27/06:00pm 21.8 18.0 -0.8 22 10.0 SW 9 13 5 7 1014.9 1014.9 0.0
27/05:30pm 23.5 19.1 -2.2 18 11.2 SW 11 20 6 11 1014.4 1014.4 0.0
27/05:00pm 24.7 20.0 -2.0 17 11.8 SW 13 20 7 11 1014.1 1014.1 0.0
27/04:30pm 25.3 20.9 -2.3 16 12.2 WSW 11 20 6 11 1013.8 1013.8 0.0
27/04:00pm 25.4 20.3 -2.2 16 12.2 WSW 15 24 8 13 1013.7 1013.7 0.0
27/03:30pm 25.6 20.0 -2.9 15 12.5 SW 17 22 9 12 1013.7 1013.7 0.0
27/03:00pm 25.7 19.4 -3.8 14 12.7 W 20 30 11 16 1013.7 1013.7 0.0
27/02:30pm 26.0 20.3 -0.9 17 12.3 W 19 28 10 15 1013.9 1013.9 0.0
27/02:00pm 25.6 20.9 -2.1 16 12.3 SW 13 22 7 12 1014.2 1014.2 0.0
27/01:30pm 25.3 19.3 -1.5 17 12.0 W 20 26 11 14 1014.6 1014.6 0.0
27/01:00pm 25.7 21.2 -0.4 18 12.0 WSW 13 22 7 12 1015.0 1015.0 0.0
27/12:30pm 25.4 20.8 -1.4 17 12.0 SSW 13 28 7 15 1015.3 1015.3 0.0

Other Formats:

Comma delimited format used in spreadsheet applications
http://www.bom.gov.au/fwo/IDQ60801/IDQ60801.95369.axf

JavaScript Object Notation format (JSON) in row-major order
http://www.bom.gov.au/fwo/IDQ60801/IDQ60801.95369.json